KASX

John F Kennedy Memorial Airport

Ashland, Wisconsin, USA
METAR KASX 172053Z AUTO 29015G22KT 10SM CLR M01/M09 A2979 RMK AO2 SLP100 T10061094 55003 $
Observed Flight Rules
Feb-17 @ 20:53 UTC (43 minutes ago) Visual Flight Rules
Wind Visibility Clouds
290° at 15 knots
 Gusting to 22 knots
10 miles
  • Clear skies
Temperatures Readings
Current -1°C / 30°F
Dewpoint -9°C / 16°F
Humidity 55%
Altimeter 29.79" Hg
Pressure 1010 hPa
Elevation 251
METAR KASX 172053Z AUTO 29015G22KT 10SM CLR M01/M09 A2979 RMK AO2 SLP100 T10061094 55003 $
Observed Flight Rules
Feb-17 @ 20:53 UTC
(43 minutes ago)
VFR
Wind Visibility
290° at 15 knots
 Gusting to 22 knots
10 miles
Clouds
  • Clear skies
Temperature Dewpoint
-1°C / 30°F -9°C / 16°F
Humidity Altimeter Pressure
55% 29.79" Hg 1010 hPa